CFS weather

Coffs Harbour Airport
Coffs Harbour, New South Wales, Australia

Public forecast

Using degrees Celsius for public forecast. Weather courtesy of forecast.io.

METAR (pilot weather report)

Closest report is Grafton Airport, 34.0 nm (62.9 km) N. Retrieved 2018/05/25 08:00 UTC (15 minutes ago):

YGFN 250800Z AUTO 20005KT 9999 // BKN085 17/13 Q1026

TAF (pilot weather forecast)

Closest forecast is Taree Airport, 99.1 nm (183.5 km) SSW. Retrieved 2018/05/25 08:33 UTC (0 seconds ago):

TAF TAF YTRE 250702Z 2508/2520 20005KT 9999 SCT020 BKN040 PROB30 2514/2520 0500 FG